Time;durP1;ratioP1;P1;durP2;ratioP2;P2;SDS_P1;SDS_P2;PMS_P1;PMS_P2;Temp;Humidity;BMP_temperature;BMP_pressure;BME280_temperature;BME280_humidity;BME280_pressure;Samples;Min_cycle;Max_cycle;Signal;HPM_P1;HPM_P2
2022/10/22 00:01:11;;;;;;;;;;;15.00;99.90;;;;;;5039946;28;20231;-75
2022/10/22 00:03:36;;;;;;;;;;;15.00;99.90;;;;;;5042045;28;19912;-75
2022/10/22 00:06:02;;;;;;;;;;;15.00;99.90;;;;;;5042352;28;19936;-74
2022/10/22 00:08:27;;;;;;;;;;;14.90;99.90;;;;;;5046591;28;20298;-74
2022/10/22 00:10:53;;;;;;;;;;;14.90;99.90;;;;;;5062217;28;19991;-74
2022/10/22 00:13:19;;;;;;;;;;;14.80;99.90;;;;;;5043729;28;19912;-75
2022/10/22 00:15:44;;;;;;;;;;;14.70;99.90;;;;;;5040927;28;19983;-75
2022/10/22 00:18:10;;;;;;;;;;;14.80;99.90;;;;;;5043163;28;19920;-75
2022/10/22 00:20:35;;;;;;;;;;;14.90;99.90;;;;;;5040021;28;19975;-76
2022/10/22 00:23:01;;;;;;;;;;;15.00;99.90;;;;;;5047848;28;19978;-75
2022/10/22 00:25:26;;;;;;;;;;;15.00;99.90;;;;;;5062573;28;19920;-75
2022/10/22 00:27:51;;;;;;;;;;;15.00;99.90;;;;;;5045831;28;19982;-76
2022/10/22 00:30:17;;;;;;;;;;;15.00;99.90;;;;;;5043990;28;20363;-75
2022/10/22 00:32:42;;;;;;;;;;;14.80;99.90;;;;;;5041993;28;19917;-76
2022/10/22 00:35:08;;;;;;;;;;;14.70;99.90;;;;;;5046680;28;20139;-76
2022/10/22 00:37:33;;;;;;;;;;;14.50;99.90;;;;;;5046223;28;20023;-76
2022/10/22 00:39:59;;;;;;;;;;;14.40;99.90;;;;;;5051377;28;19913;-79
2022/10/22 00:42:25;;;;;;;;;;;14.40;99.90;;;;;;5044545;28;20391;-79
2022/10/22 00:45:03;;;;;;;;;;;14.30;99.90;;;;;;5046042;28;20003;-79
2022/10/22 00:47:55;;;;;;;;;;;14.20;99.90;;;;;;5031349;28;20000;-79
2022/10/22 00:50:27;;;;;;;;;;;14.20;99.90;;;;;;5040206;28;20280;-78
2022/10/22 00:52:53;;;;;;;;;;;14.30;99.90;;;;;;5042445;28;19923;-78
2022/10/22 00:55:20;;;;;;;;;;;14.40;99.90;;;;;;5051999;28;19961;-76
2022/10/22 00:57:46;;;;;;;;;;;14.50;99.90;;;;;;5041625;28;20393;-76
2022/10/22 01:00:11;;;;;;;;;;;14.60;99.90;;;;;;5043992;28;19913;-79
2022/10/22 01:02:37;;;;;;;;;;;14.60;99.90;;;;;;5044650;28;19964;-78
2022/10/22 01:05:03;;;;;;;;;;;14.50;99.90;;;;;;5043037;28;19956;-77
2022/10/22 01:07:28;;;;;;;;;;;14.40;99.90;;;;;;5044192;28;19920;-79
2022/10/22 01:09:57;;;;;;;;;;;14.40;99.90;;;;;;5046107;28;19937;-79
2022/10/22 01:12:37;;;;;;;;;;;14.30;99.90;;;;;;5048841;28;19908;-78
2022/10/22 01:15:09;;;;;;;;;;;14.20;99.90;;;;;;5047891;28;20098;-78
2022/10/22 01:17:40;;;;;;;;;;;14.30;99.90;;;;;;5040076;28;20792;-78
2022/10/22 01:20:05;;;;;;;;;;;14.40;99.90;;;;;;5039629;28;19949;-78
2022/10/22 01:22:34;;;;;;;;;;;14.50;99.90;;;;;;5057246;28;20006;-76
2022/10/22 01:25:09;;;;;;;;;;;14.50;99.90;;;;;;5044439;28;19936;-75
2022/10/22 01:27:53;;;;;;;;;;;14.50;99.90;;;;;;5045620;28;19912;-76
2022/10/22 01:30:19;;;;;;;;;;;14.50;99.90;;;;;;5045413;28;19969;-78
2022/10/22 01:32:47;;;;;;;;;;;14.40;99.90;;;;;;5041608;28;20367;-77
2022/10/22 01:35:14;;;;;;;;;;;14.40;99.90;;;;;;5024654;28;19924;-76
2022/10/22 01:37:45;;;;;;;;;;;14.40;99.90;;;;;;5025057;28;19935;-76
2022/10/22 01:40:13;;;;;;;;;;;14.40;99.90;;;;;;5030893;28;19916;-76
2022/10/22 01:42:39;;;;;;;;;;;14.50;99.90;;;;;;5008950;28;1056301;-77
2022/10/22 01:45:09;;;;;;;;;;;14.50;99.90;;;;;;5046633;28;19959;-76
2022/10/22 01:47:44;;;;;;;;;;;14.40;99.90;;;;;;5028390;28;19940;-77
2022/10/22 01:50:28;;;;;;;;;;;14.40;99.90;;;;;;5026722;28;19959;-75
2022/10/22 01:52:53;;;;;;;;;;;14.30;99.90;;;;;;5026215;28;19921;-76
2022/10/22 01:55:19;;;;;;;;;;;14.20;99.90;;;;;;5024513;28;19928;-77
2022/10/22 01:57:50;;;;;;;;;;;14.20;99.90;;;;;;5024797;28;20474;-75
2022/10/22 02:00:17;;;;;;;;;;;14.00;99.90;;;;;;5039334;28;19963;-77
2022/10/22 02:02:48;;;;;;;;;;;14.00;99.90;;;;;;5043052;28;19991;-76
2022/10/22 02:05:19;;;;;;;;;;;13.90;99.90;;;;;;5042002;28;19955;-75
2022/10/22 02:07:50;;;;;;;;;;;13.90;99.90;;;;;;5043914;28;20234;-76
2022/10/22 02:10:16;;;;;;;;;;;13.90;99.90;;;;;;5055898;28;20383;-75
2022/10/22 02:12:43;;;;;;;;;;;13.90;99.90;;;;;;5025819;28;19917;-76
2022/10/22 02:15:09;;;;;;;;;;;13.80;99.90;;;;;;5044123;28;19960;-75
2022/10/22 02:17:36;;;;;;;;;;;13.70;99.90;;;;;;5045490;28;20359;-75
2022/10/22 02:20:04;;;;;;;;;;;13.70;99.90;;;;;;5043616;28;20020;-76
2022/10/22 02:22:30;;;;;;;;;;;13.60;99.90;;;;;;5045257;28;19917;-76
2022/10/22 02:24:56;;;;;;;;;;;13.60;99.90;;;;;;5045209;28;20500;-76
2022/10/22 02:27:24;;;;;;;;;;;13.60;99.90;;;;;;5045465;28;19916;-75
2022/10/22 02:30:22;;;;;;;;;;;13.60;99.90;;;;;;5043848;28;20379;-76
2022/10/22 02:32:55;;;;;;;;;;;13.70;99.90;;;;;;5025825;28;20371;-77
2022/10/22 02:35:21;;;;;;;;;;;13.70;99.90;;;;;;5042050;28;20001;-77
2022/10/22 02:37:47;;;;;;;;;;;13.70;99.90;;;;;;5043498;28;19980;-76
2022/10/22 02:40:13;;;;;;;;;;;13.60;99.90;;;;;;5033991;28;20317;-76
2022/10/22 02:42:40;;;;;;;;;;;13.60;99.90;;;;;;5025394;28;19932;-75
2022/10/22 02:45:06;;;;;;;;;;;13.50;99.90;;;;;;5025517;28;19909;-77
2022/10/22 02:47:31;;;;;;;;;;;13.40;99.90;;;;;;5024879;28;19909;-76
2022/10/22 02:49:57;;;;;;;;;;;13.40;99.90;;;;;;5024042;28;19917;-75
2022/10/22 02:52:22;;;;;;;;;;;13.40;99.90;;;;;;5034984;28;19917;-76
2022/10/22 02:54:47;;;;;;;;;;;13.40;99.90;;;;;;5029847;28;19917;-76
2022/10/22 02:57:13;;;;;;;;;;;13.40;99.90;;;;;;5024839;28;19921;-76
2022/10/22 02:59:38;;;;;;;;;;;13.40;99.90;;;;;;5036010;28;20382;-76
2022/10/22 03:02:04;;;;;;;;;;;13.50;99.90;;;;;;5045084;28;19909;-76
2022/10/22 03:04:30;;;;;;;;;;;13.60;99.90;;;;;;5044495;28;19990;-76
2022/10/22 03:06:55;;;;;;;;;;;13.60;99.90;;;;;;5038150;28;19917;-77
2022/10/22 03:09:21;;;;;;;;;;;13.70;99.90;;;;;;5043557;28;19927;-76
2022/10/22 03:11:46;;;;;;;;;;;13.70;99.90;;;;;;5045308;28;19991;-76
2022/10/22 03:14:12;;;;;;;;;;;13.60;99.90;;;;;;5044942;28;19967;-74
2022/10/22 03:16:37;;;;;;;;;;;13.50;99.90;;;;;;5044996;28;20070;-75
2022/10/22 03:19:03;;;;;;;;;;;13.40;99.90;;;;;;5044349;28;19919;-76
2022/10/22 03:21:36;;;;;;;;;;;13.20;99.90;;;;;;5043913;28;19935;-75
2022/10/22 03:24:04;;;;;;;;;;;13.10;99.90;;;;;;5044638;28;20383;-75
2022/10/22 03:26:30;;;;;;;;;;;13.00;99.90;;;;;;5044347;28;19909;-76
2022/10/22 03:28:56;;;;;;;;;;;12.90;99.90;;;;;;5044211;28;20003;-75
2022/10/22 03:31:21;;;;;;;;;;;12.80;99.90;;;;;;5043945;28;20003;-75
2022/10/22 03:33:47;;;;;;;;;;;12.80;99.90;;;;;;5043722;28;19967;-75
2022/10/22 03:36:12;;;;;;;;;;;12.70;99.90;;;;;;5044346;28;19927;-76
2022/10/22 03:38:39;;;;;;;;;;;12.70;99.90;;;;;;5039085;28;19920;-75
2022/10/22 03:41:05;;;;;;;;;;;12.70;99.90;;;;;;5024494;28;20467;-75
2022/10/22 03:43:30;;;;;;;;;;;12.60;99.90;;;;;;5024592;28;20008;-75
2022/10/22 03:45:56;;;;;;;;;;;12.60;99.90;;;;;;5024274;28;19913;-76
2022/10/22 03:48:21;;;;;;;;;;;12.60;99.90;;;;;;5038488;28;20241;-75
2022/10/22 03:50:47;;;;;;;;;;;12.50;99.90;;;;;;5023155;28;19945;-76
2022/10/22 03:53:12;;;;;;;;;;;12.50;99.90;;;;;;5024729;28;19913;-75
2022/10/22 03:55:39;;;;;;;;;;;12.40;99.90;;;;;;5029441;28;19912;-76
2022/10/22 03:58:05;;;;;;;;;;;12.40;99.90;;;;;;5044134;28;19974;-75
2022/10/22 04:00:30;;;;;;;;;;;12.40;99.90;;;;;;5043599;28;19913;-75
2022/10/22 04:02:56;;;;;;;;;;;12.30;99.90;;;;;;5028279;28;19972;-76
2022/10/22 04:05:22;;;;;;;;;;;12.40;99.90;;;;;;5023366;28;19923;-76
2022/10/22 04:07:48;;;;;;;;;;;12.40;99.90;;;;;;5024085;28;19921;-75
2022/10/22 04:10:13;;;;;;;;;;;12.40;99.90;;;;;;5023850;28;19913;-75
2022/10/22 04:12:39;;;;;;;;;;;12.40;99.90;;;;;;5024377;28;19924;-76
2022/10/22 04:15:05;;;;;;;;;;;12.40;99.90;;;;;;5024110;28;19924;-76
2022/10/22 04:17:34;;;;;;;;;;;12.30;99.90;;;;;;5038013;28;19922;-76
2022/10/22 04:20:00;;;;;;;;;;;12.30;99.90;;;;;;5021045;28;19917;-76
2022/10/22 04:22:25;;;;;;;;;;;12.20;99.90;;;;;;5023540;28;19960;-76
2022/10/22 04:24:51;;;;;;;;;;;12.20;99.90;;;;;;5023525;28;20012;-75
2022/10/22 04:27:16;;;;;;;;;;;12.20;99.90;;;;;;5023864;28;19917;-76
2022/10/22 04:29:42;;;;;;;;;;;12.20;99.90;;;;;;5039339;28;19931;-75
2022/10/22 04:32:07;;;;;;;;;;;12.20;99.90;;;;;;5042883;28;19955;-76
2022/10/22 04:34:33;;;;;;;;;;;12.20;99.90;;;;;;5041353;28;19917;-75
2022/10/22 04:36:58;;;;;;;;;;;12.20;99.90;;;;;;5040704;28;20332;-76
2022/10/22 04:39:24;;;;;;;;;;;12.10;99.90;;;;;;5043037;28;19956;-75
2022/10/22 04:41:49;;;;;;;;;;;12.00;99.90;;;;;;5037321;28;19925;-75
2022/10/22 04:44:15;;;;;;;;;;;12.00;99.90;;;;;;5021805;28;19921;-76
2022/10/22 04:46:40;;;;;;;;;;;12.00;99.90;;;;;;5023635;28;19982;-76
2022/10/22 04:49:06;;;;;;;;;;;12.00;99.90;;;;;;5003758;28;19967;-74
2022/10/22 04:51:31;;;;;;;;;;;12.00;99.90;;;;;;4995919;28;19962;-76
2022/10/22 04:53:57;;;;;;;;;;;12.10;99.90;;;;;;5004578;28;19984;-76
2022/10/22 04:56:24;;;;;;;;;;;12.10;99.90;;;;;;5023740;28;20300;-76
2022/10/22 04:58:50;;;;;;;;;;;12.10;99.90;;;;;;5021527;28;19943;-76
2022/10/22 05:01:17;;;;;;;;;;;12.10;99.90;;;;;;5022035;28;19921;-75
2022/10/22 05:03:43;;;;;;;;;;;12.10;99.90;;;;;;5020733;28;19960;-75
2022/10/22 05:06:09;;;;;;;;;;;12.10;99.90;;;;;;5021132;28;20406;-75
2022/10/22 05:08:35;;;;;;;;;;;12.00;99.90;;;;;;5021428;28;19913;-76
2022/10/22 05:11:00;;;;;;;;;;;12.00;99.90;;;;;;5003251;28;19913;-73
2022/10/22 05:13:26;;;;;;;;;;;11.90;99.90;;;;;;5021327;28;19921;-76
2022/10/22 05:15:51;;;;;;;;;;;11.80;99.90;;;;;;5021135;28;19968;-75
2022/10/22 05:18:17;;;;;;;;;;;11.70;99.90;;;;;;5022599;28;20348;-76
2022/10/22 05:20:42;;;;;;;;;;;11.70;99.90;;;;;;5023339;28;20364;-76
2022/10/22 05:23:08;;;;;;;;;;;11.70;99.90;;;;;;5024951;28;19921;-75
2022/10/22 05:25:37;;;;;;;;;;;11.60;99.90;;;;;;5023963;28;19920;-76
2022/10/22 05:28:02;;;;;;;;;;;11.60;99.90;;;;;;5020929;28;20012;-76
2022/10/22 05:30:28;;;;;;;;;;;11.70;99.90;;;;;;5032838;28;21041;-76
2022/10/22 05:32:53;;;;;;;;;;;11.70;99.90;;;;;;5032471;28;20101;-75
2022/10/22 05:35:18;;;;;;;;;;;11.70;99.90;;;;;;5031873;28;19962;-75
2022/10/22 05:37:44;;;;;;;;;;;11.70;99.90;;;;;;5033085;28;19920;-75
2022/10/22 05:40:10;;;;;;;;;;;11.70;99.90;;;;;;5030228;28;19953;-76
2022/10/22 05:42:35;;;;;;;;;;;11.70;99.90;;;;;;5030078;28;19932;-75
2022/10/22 05:45:01;;;;;;;;;;;11.70;99.90;;;;;;5037542;28;19916;-76
2022/10/22 05:47:28;;;;;;;;;;;11.70;99.90;;;;;;5034942;28;19952;-75
2022/10/22 05:49:56;;;;;;;;;;;11.70;99.90;;;;;;5029853;28;20009;-76
2022/10/22 05:52:21;;;;;;;;;;;11.60;99.90;;;;;;5039057;28;19920;-76
2022/10/22 05:54:47;;;;;;;;;;;11.60;99.90;;;;;;5030641;28;19914;-76
2022/10/22 05:57:12;;;;;;;;;;;11.70;99.90;;;;;;5034403;28;20126;-75
2022/10/22 05:59:38;;;;;;;;;;;11.70;99.90;;;;;;5032909;28;19988;-75
2022/10/22 06:02:04;;;;;;;;;;;11.70;99.90;;;;;;5032734;28;19971;-75
2022/10/22 06:04:29;;;;;;;;;;;11.70;99.90;;;;;;5032306;28;19921;-76
2022/10/22 06:06:55;;;;;;;;;;;11.70;99.90;;;;;;5033289;28;20015;-75
2022/10/22 06:09:23;;;;;;;;;;;11.60;99.90;;;;;;5035263;28;19996;-76
2022/10/22 06:11:49;;;;;;;;;;;11.60;99.90;;;;;;5035498;28;19963;-76
2022/10/22 06:14:15;;;;;;;;;;;11.50;99.90;;;;;;5034324;28;20004;-74
2022/10/22 06:16:40;;;;;;;;;;;11.50;99.90;;;;;;5026221;28;20047;-75
2022/10/22 06:19:06;;;;;;;;;;;11.40;99.90;;;;;;5022624;28;20000;-75
2022/10/22 06:21:32;;;;;;;;;;;11.40;99.90;;;;;;5492965;22;19977;-75
2022/10/22 06:23:58;;;;;;;;;;;11.40;99.90;;;;;;5028130;28;20026;-76
2022/10/22 06:26:23;;;;;;;;;;;11.50;99.90;;;;;;5024956;28;19924;-75
2022/10/22 06:28:49;;;;;;;;;;;11.60;99.90;;;;;;5036134;28;19916;-76
2022/10/22 06:31:15;;;;;;;;;;;11.60;99.90;;;;;;5033000;28;19935;-75
2022/10/22 06:33:43;;;;;;;;;;;11.70;99.90;;;;;;5014307;28;20300;-75
2022/10/22 06:36:13;;;;;;;;;;;11.70;99.90;;;;;;5036604;28;19951;-76
2022/10/22 06:38:39;;;;;;;;;;;11.70;99.90;;;;;;5036363;28;20101;-75
2022/10/22 06:41:05;;;;;;;;;;;11.70;99.90;;;;;;5035578;28;20187;-75
2022/10/22 06:43:31;;;;;;;;;;;11.70;99.90;;;;;;5012999;28;20008;-76
2022/10/22 06:46:00;;;;;;;;;;;11.70;99.90;;;;;;5033760;28;19947;-76
2022/10/22 06:48:26;;;;;;;;;;;11.70;99.90;;;;;;5035476;28;19916;-76
2022/10/22 06:50:51;;;;;;;;;;;11.80;99.90;;;;;;5038599;28;19923;-76
2022/10/22 06:53:17;;;;;;;;;;;11.90;99.90;;;;;;5037091;28;19940;-75
2022/10/22 06:55:42;;;;;;;;;;;11.90;99.90;;;;;;5030892;28;19925;-76
2022/10/22 06:58:08;;;;;;;;;;;12.00;99.90;;;;;;5033032;28;20367;-76
2022/10/22 07:00:33;;;;;;;;;;;12.10;99.90;;;;;;5033822;28;19964;-75
2022/10/22 07:02:59;;;;;;;;;;;12.30;99.90;;;;;;5032240;28;20020;-76
2022/10/22 07:05:24;;;;;;;;;;;12.30;99.90;;;;;;5025143;28;19929;-76
2022/10/22 07:07:50;;;;;;;;;;;12.50;99.90;;;;;;5029058;28;19916;-76
2022/10/22 07:10:15;;;;;;;;;;;12.60;99.90;;;;;;5029270;28;19916;-76
2022/10/22 07:12:41;;;;;;;;;;;12.80;99.90;;;;;;5032918;28;20027;-76
2022/10/22 07:15:06;;;;;;;;;;;13.10;99.90;;;;;;5045413;28;20351;-76
2022/10/22 07:17:32;;;;;;;;;;;13.30;99.90;;;;;;5038491;28;19924;-76
2022/10/22 07:19:57;;;;;;;;;;;13.40;99.90;;;;;;5036246;28;19920;-76
2022/10/22 07:22:23;;;;;;;;;;;13.50;99.90;;;;;;5028182;28;20004;-76
2022/10/22 07:24:48;;;;;;;;;;;13.40;99.90;;;;;;5013950;28;19976;-77
2022/10/22 07:27:14;;;;;;;;;;;13.40;99.90;;;;;;5018244;28;19917;-76
2022/10/22 07:29:39;;;;;;;;;;;13.50;99.90;;;;;;5022232;28;19975;-76
2022/10/22 07:32:05;;;;;;;;;;;13.50;99.90;;;;;;5015736;28;19917;-76
2022/10/22 07:34:30;;;;;;;;;;;13.60;99.90;;;;;;5021568;28;20279;-78
2022/10/22 07:36:56;;;;;;;;;;;13.70;99.90;;;;;;5022587;28;19998;-78
2022/10/22 07:39:22;;;;;;;;;;;13.90;99.90;;;;;;5018711;28;19947;-78
2022/10/22 07:41:47;;;;;;;;;;;14.10;99.90;;;;;;5026423;28;19958;-78
2022/10/22 07:44:13;;;;;;;;;;;14.20;99.90;;;;;;5032398;28;19921;-78
2022/10/22 07:46:38;;;;;;;;;;;14.40;99.90;;;;;;5032984;28;20881;-78
2022/10/22 07:49:04;;;;;;;;;;;14.40;99.90;;;;;;5023754;28;19928;-76
2022/10/22 07:51:29;;;;;;;;;;;14.50;99.90;;;;;;5018310;28;19917;-76
2022/10/22 07:53:55;;;;;;;;;;;14.60;99.90;;;;;;5019977;28;20319;-76
2022/10/22 07:56:20;;;;;;;;;;;14.80;99.90;;;;;;5018254;28;20020;-76
2022/10/22 07:58:46;;;;;;;;;;;15.00;99.90;;;;;;5018432;28;19917;-76
2022/10/22 08:01:11;;;;;;;;;;;15.40;99.90;;;;;;5017563;28;19921;-76
2022/10/22 08:03:37;;;;;;;;;;;15.60;99.90;;;;;;5021893;28;19932;-76
2022/10/22 08:06:03;;;;;;;;;;;15.80;99.90;;;;;;5018373;28;19917;-77
2022/10/22 08:08:28;;;;;;;;;;;15.90;99.90;;;;;;5019435;28;20382;-77
2022/10/22 08:10:55;;;;;;;;;;;16.00;99.90;;;;;;5021085;28;19917;-76
2022/10/22 08:13:21;;;;;;;;;;;16.40;99.90;;;;;;5021516;28;19952;-76
2022/10/22 08:15:46;;;;;;;;;;;16.80;99.90;;;;;;5019498;28;19925;-76
2022/10/22 08:18:12;;;;;;;;;;;17.60;99.90;;;;;;5024244;28;20331;-76
2022/10/22 08:20:38;;;;;;;;;;;18.10;99.90;;;;;;5030548;28;19970;-76
2022/10/22 08:23:03;;;;;;;;;;;18.10;99.90;;;;;;5030715;28;20183;-77
2022/10/22 08:25:29;;;;;;;;;;;17.90;99.90;;;;;;5033687;28;19917;-76
2022/10/22 08:27:54;;;;;;;;;;;18.60;99.90;;;;;;5024959;28;19921;-75
2022/10/22 08:30:20;;;;;;;;;;;18.90;99.90;;;;;;5024938;28;19917;-77
2022/10/22 08:32:46;;;;;;;;;;;19.00;99.90;;;;;;5027422;28;20425;-76
2022/10/22 08:35:11;;;;;;;;;;;18.90;99.90;;;;;;5019007;28;19917;-76
2022/10/22 08:37:37;;;;;;;;;;;18.80;99.90;;;;;;5016157;28;19924;-77
2022/10/22 08:40:03;;;;;;;;;;;18.50;99.90;;;;;;5015369;28;19933;-76
2022/10/22 08:42:29;;;;;;;;;;;19.10;99.90;;;;;;5008789;28;20269;-76
2022/10/22 08:45:06;;;;;;;;;;;20.00;99.90;;;;;;5019816;28;19924;-77
2022/10/22 08:47:39;;;;;;;;;;;21.40;99.90;;;;;;5017080;28;20651;-76
2022/10/22 08:50:08;;;;;;;;;;;22.60;97.30;;;;;;5014824;28;20402;-77
2022/10/22 08:52:34;;;;;;;;;;;23.00;90.70;;;;;;5014685;28;20042;-77
2022/10/22 08:55:00;;;;;;;;;;;22.40;93.20;;;;;;5014183;28;19921;-77
2022/10/22 08:57:26;;;;;;;;;;;21.20;95.80;;;;;;5032164;28;20285;-76
2022/10/22 09:00:00;;;;;;;;;;;20.00;99.90;;;;;;5020882;28;19939;-77
2022/10/22 09:02:44;;;;;;;;;;;18.90;99.90;;;;;;5029562;28;19928;-76
2022/10/22 09:05:10;;;;;;;;;;;17.90;99.90;;;;;;4319064;28;10000579;-76
2022/10/22 09:07:35;;;;;;;;;;;17.20;99.90;;;;;;5017719;28;19924;-77
2022/10/22 09:10:02;;;;;;;;;;;16.90;99.90;;;;;;5025042;28;20391;-76
2022/10/22 09:12:27;;;;;;;;;;;16.70;99.90;;;;;;5022355;28;19983;-76
2022/10/22 09:14:53;;;;;;;;;;;16.70;99.90;;;;;;5023213;28;20396;-76
2022/10/22 09:17:28;;;;;;;;;;;16.60;99.90;;;;;;5022002;28;20067;-76
2022/10/22 09:20:03;;;;;;;;;;;16.50;99.90;;;;;;5022788;28;20277;-76
2022/10/22 09:22:41;;;;;;;;;;;16.30;99.90;;;;;;5029579;28;20396;-75
2022/10/22 09:25:12;;;;;;;;;;;16.60;99.90;;;;;;5017456;28;19917;-75
2022/10/22 09:27:38;;;;;;;;;;;16.90;99.90;;;;;;5030282;28;19916;-76
2022/10/22 09:30:04;;;;;;;;;;;17.40;99.90;;;;;;5018553;28;19944;-75
2022/10/22 09:32:30;;;;;;;;;;;18.30;99.90;;;;;;5032801;28;20198;-76
2022/10/22 09:34:57;;;;;;;;;;;18.70;99.90;;;;;;5022781;28;19925;-76
2022/10/22 09:37:27;;;;;;;;;;;18.40;99.90;;;;;;5020788;28;19929;-76
2022/10/22 09:39:53;;;;;;;;;;;18.00;99.90;;;;;;5017009;28;19917;-76
2022/10/22 09:42:19;;;;;;;;;;;17.70;99.90;;;;;;5018496;28;19990;-76
2022/10/22 09:44:52;;;;;;;;;;;17.60;99.90;;;;;;5021527;28;19971;-76
2022/10/22 09:47:35;;;;;;;;;;;17.50;99.90;;;;;;5016825;28;19928;-77
2022/10/22 09:50:10;;;;;;;;;;;17.30;99.90;;;;;;5025250;28;19963;-76
2022/10/22 09:52:35;;;;;;;;;;;16.80;99.90;;;;;;5033159;28;20327;-75
2022/10/22 09:55:01;;;;;;;;;;;16.60;99.90;;;;;;5032432;28;20182;-76
2022/10/22 09:57:27;;;;;;;;;;;16.40;99.90;;;;;;5019923;28;19967;-76
2022/10/22 09:59:53;;;;;;;;;;;16.80;99.90;;;;;;5041254;28;19956;-75
2022/10/22 10:02:21;;;;;;;;;;;17.30;99.90;;;;;;5025078;28;19952;-77
2022/10/22 10:04:47;;;;;;;;;;;17.20;99.90;;;;;;5019950;28;19917;-76
2022/10/22 10:07:16;;;;;;;;;;;17.20;99.90;;;;;;5053441;28;19917;-75
2022/10/22 10:09:42;;;;;;;;;;;17.30;99.90;;;;;;5023066;28;19925;-75
2022/10/22 10:12:07;;;;;;;;;;;18.70;99.90;;;;;;5014945;28;19971;-76
2022/10/22 10:14:47;;;;;;;;;;;19.70;99.90;;;;;;5010185;28;20375;-75
2022/10/22 10:17:15;;;;;;;;;;;20.10;99.90;;;;;;5020593;28;19929;-76
2022/10/22 10:19:59;;;;;;;;;;;20.70;99.90;;;;;;5025138;28;19917;-76
2022/10/22 10:22:30;;;;;;;;;;;20.40;99.90;;;;;;5022736;28;19931;-76
2022/10/22 10:24:56;;;;;;;;;;;20.10;99.90;;;;;;5019913;28;19925;-76
2022/10/22 10:27:25;;;;;;;;;;;19.90;99.90;;;;;;5041741;28;20563;-75
2022/10/22 10:29:51;;;;;;;;;;;19.60;99.90;;;;;;5037332;28;20014;-76
2022/10/22 10:32:34;;;;;;;;;;;19.20;99.90;;;;;;5041084;28;20513;-77
2022/10/22 10:35:32;;;;;;;;;;;19.20;99.90;;;;;;5017625;28;19928;-76
2022/10/22 10:38:10;;;;;;;;;;;19.00;99.90;;;;;;5019374;28;19924;-76
2022/10/22 10:40:47;;;;;;;;;;;18.70;99.90;;;;;;5055348;28;19916;-76
2022/10/22 10:43:15;;;;;;;;;;;18.50;99.90;;;;;;5049347;28;20405;-75
2022/10/22 10:45:44;;;;;;;;;;;18.20;99.90;;;;;;4344495;28;10000630;-76
2022/10/22 10:48:32;;;;;;;;;;;18.20;99.90;;;;;;5042253;28;20362;-74
2022/10/22 10:51:00;;;;;;;;;;;18.30;99.90;;;;;;5036318;28;19924;-74
2022/10/22 10:53:49;;;;;;;;;;;18.60;99.90;;;;;;5038594;28;19925;-76
2022/10/22 10:56:23;;;;;;;;;;;18.70;99.90;;;;;;5010106;28;20246;-78
2022/10/22 10:59:01;;;;;;;;;;;19.00;99.90;;;;;;5035584;28;19923;-75
2022/10/22 11:01:31;;;;;;;;;;;19.10;99.90;;;;;;5056449;28;19921;-75
2022/10/22 11:03:57;;;;;;;;;;;19.10;99.90;;;;;;5049041;28;20371;-75
2022/10/22 11:06:24;;;;;;;;;;;19.20;99.90;;;;;;5037742;28;19924;-77
2022/10/22 11:08:53;;;;;;;;;;;19.40;99.90;;;;;;5041909;28;19917;-76
2022/10/22 11:11:19;;;;;;;;;;;20.10;99.90;;;;;;5042965;28;20287;-78
2022/10/22 11:14:03;;;;;;;;;;;21.10;99.90;;;;;;5035897;28;20020;-75
2022/10/22 11:16:31;;;;;;;;;;;21.70;99.90;;;;;;5032782;28;19971;-76
2022/10/22 11:19:16;;;;;;;;;;;22.00;97.40;;;;;;5034832;28;19916;-78
2022/10/22 11:21:46;;;;;;;;;;;21.90;93.30;;;;;;4688157;28;10000411;-76
2022/10/22 11:24:11;;;;;;;;;;;21.50;94.20;;;;;;5035604;28;20008;-76
2022/10/22 11:26:43;;;;;;;;;;;21.00;96.70;;;;;;5036966;28;20007;-76
2022/10/22 11:29:29;;;;;;;;;;;21.10;95.50;;;;;;5050728;28;19920;-75
2022/10/22 11:31:55;;;;;;;;;;;21.50;97.70;;;;;;5021879;28;19917;-76
2022/10/22 11:34:23;;;;;;;;;;;21.90;94.10;;;;;;5023965;28;19917;-76
2022/10/22 11:36:50;;;;;;;;;;;22.00;95.90;;;;;;5023303;28;19933;-75
2022/10/22 11:39:34;;;;;;;;;;;21.90;95.40;;;;;;5047708;28;20014;-75
2022/10/22 11:42:02;;;;;;;;;;;21.40;92.90;;;;;;5034559;28;19952;-76
2022/10/22 11:44:29;;;;;;;;;;;20.90;95.00;;;;;;5035566;28;19925;-77
2022/10/22 11:47:15;;;;;;;;;;;20.40;96.30;;;;;;5042886;28;20131;-76
2022/10/22 11:49:42;;;;;;;;;;;20.30;99.90;;;;;;5044943;28;19939;-77
2022/10/22 11:52:22;;;;;;;;;;;20.20;99.90;;;;;;5041314;28;20352;-77
2022/10/22 11:54:47;;;;;;;;;;;20.40;99.90;;;;;;5043761;28;19971;-78
2022/10/22 11:57:13;;;;;;;;;;;20.60;99.00;;;;;;5030551;28;19920;-77
2022/10/22 11:59:40;;;;;;;;;;;20.60;98.40;;;;;;5035798;28;20011;-74
2022/10/22 12:02:30;;;;;;;;;;;20.50;96.50;;;;;;5039722;28;19917;-75
2022/10/22 12:05:15;;;;;;;;;;;20.20;97.80;;;;;;5045947;28;19927;-78
2022/10/22 12:07:46;;;;;;;;;;;20.10;99.90;;;;;;5039057;28;20004;-76
2022/10/22 12:10:17;;;;;;;;;;;20.20;99.90;;;;;;5042424;28;20149;-76
2022/10/22 12:12:43;;;;;;;;;;;20.40;99.90;;;;;;5025042;28;19928;-78
2022/10/22 12:15:25;;;;;;;;;;;20.60;99.90;;;;;;5061619;28;19924;-78
2022/10/22 12:17:58;;;;;;;;;;;20.50;99.90;;;;;;5047920;28;19936;-79
2022/10/22 12:20:24;;;;;;;;;;;20.30;99.90;;;;;;5043339;28;19971;-75
2022/10/22 12:22:51;;;;;;;;;;;20.10;99.90;;;;;;5040065;28;20635;-76
2022/10/22 12:25:23;;;;;;;;;;;19.70;99.90;;;;;;5019686;28;19939;-76
2022/10/22 12:27:52;;;;;;;;;;;19.40;99.90;;;;;;5018735;28;19920;-75
2022/10/22 12:30:20;;;;;;;;;;;19.20;99.90;;;;;;5036489;28;19921;-76
2022/10/22 12:32:45;;;;;;;;;;;19.20;99.90;;;;;;5027478;28;20307;-77
2022/10/22 12:35:16;;;;;;;;;;;19.30;99.90;;;;;;5029829;28;19924;-75
2022/10/22 12:37:41;;;;;;;;;;;19.30;99.90;;;;;;5030669;28;19956;-77
2022/10/22 12:40:27;;;;;;;;;;;19.10;99.90;;;;;;5025453;28;19963;-75
2022/10/22 12:42:57;;;;;;;;;;;19.30;99.90;;;;;;5040351;28;20262;-77
2022/10/22 12:45:24;;;;;;;;;;;19.40;99.90;;;;;;5037767;28;20226;-77
2022/10/22 12:48:10;;;;;;;;;;;19.50;99.90;;;;;;5028388;28;20163;-76
2022/10/22 12:50:40;;;;;;;;;;;19.60;99.90;;;;;;5034653;28;20588;-76
2022/10/22 12:53:11;;;;;;;;;;;19.50;99.90;;;;;;5034621;28;19939;-77
2022/10/22 12:55:38;;;;;;;;;;;19.50;99.90;;;;;;5038749;28;19970;-76
2022/10/22 12:58:04;;;;;;;;;;;19.40;99.90;;;;;;5034205;28;19924;-77
2022/10/22 13:00:33;;;;;;;;;;;19.20;99.90;;;;;;5039081;28;19917;-76
2022/10/22 13:03:01;;;;;;;;;;;19.20;99.90;;;;;;5035737;28;19996;-76
2022/10/22 13:05:29;;;;;;;;;;;19.20;99.90;;;;;;5039432;28;19960;-77
2022/10/22 13:08:03;;;;;;;;;;;19.20;99.90;;;;;;5036711;28;19917;-76
2022/10/22 13:10:33;;;;;;;;;;;19.30;99.90;;;;;;5022761;28;19948;-76
2022/10/22 13:13:02;;;;;;;;;;;19.40;99.90;;;;;;5030040;28;19916;-77
2022/10/22 13:15:27;;;;;;;;;;;19.50;99.90;;;;;;5039792;28;19921;-76
2022/10/22 13:18:11;;;;;;;;;;;19.50;99.90;;;;;;5028592;28;19976;-77
2022/10/22 13:20:48;;;;;;;;;;;19.50;99.90;;;;;;5034835;28;19921;-77
2022/10/22 13:23:21;;;;;;;;;;;19.90;99.90;;;;;;5017329;28;19925;-76
2022/10/22 13:25:59;;;;;;;;;;;20.30;99.90;;;;;;5006758;28;19917;-76
2022/10/22 13:28:25;;;;;;;;;;;20.50;99.90;;;;;;4998447;28;19924;-75
2022/10/22 13:30:58;;;;;;;;;;;20.40;99.90;;;;;;4997836;28;19928;-77
2022/10/22 13:33:27;;;;;;;;;;;20.00;99.90;;;;;;5011302;28;20001;-77
2022/10/22 13:35:53;;;;;;;;;;;19.70;99.90;;;;;;4998542;28;19964;-77
2022/10/22 13:38:19;;;;;;;;;;;19.60;99.90;;;;;;5008305;28;19965;-76
2022/10/22 13:40:45;;;;;;;;;;;19.80;99.90;;;;;;5020786;28;19931;-76
2022/10/22 13:43:11;;;;;;;;;;;19.90;99.90;;;;;;5020575;28;19975;-76
2022/10/22 13:45:39;;;;;;;;;;;19.70;99.90;;;;;;5023357;28;19921;-77
2022/10/22 13:48:05;;;;;;;;;;;19.60;99.90;;;;;;5018771;28;20241;-76
2022/10/22 13:50:30;;;;;;;;;;;19.70;99.90;;;;;;5013216;28;19917;-75
2022/10/22 13:52:56;;;;;;;;;;;19.80;99.90;;;;;;4999650;28;19925;-76
2022/10/22 13:55:27;;;;;;;;;;;19.90;99.90;;;;;;5011595;28;20073;-75
2022/10/22 13:57:56;;;;;;;;;;;19.90;99.90;;;;;;5012442;28;19929;-77
2022/10/22 14:00:22;;;;;;;;;;;19.90;99.90;;;;;;4998903;28;19917;-76
2022/10/22 14:02:49;;;;;;;;;;;19.80;99.90;;;;;;5012917;28;19917;-76
2022/10/22 14:05:18;;;;;;;;;;;19.60;99.90;;;;;;5022702;28;19975;-76
2022/10/22 14:07:43;;;;;;;;;;;19.30;99.90;;;;;;5015416;28;20365;-78
2022/10/22 14:10:19;;;;;;;;;;;19.20;99.90;;;;;;5020172;28;19921;-76
2022/10/22 14:12:45;;;;;;;;;;;19.00;99.90;;;;;;5021483;28;19917;-76
2022/10/22 14:15:12;;;;;;;;;;;18.90;99.90;;;;;;5022768;28;19917;-76
2022/10/22 14:17:38;;;;;;;;;;;18.70;99.90;;;;;;5013101;28;20008;-77
2022/10/22 14:20:04;;;;;;;;;;;18.50;99.90;;;;;;5018313;28;20063;-75
2022/10/22 14:22:30;;;;;;;;;;;18.30;99.90;;;;;;5031748;28;20008;-76